Time;durP1;ratioP1;P1;durP2;ratioP2;P2;SDS_P1;SDS_P2;PMS_P1;PMS_P2;Temp;Humidity;BMP_temperature;BMP_pressure;BME280_temperature;BME280_humidity;BME280_pressure;Samples;Min_cycle;Max_cycle;Signal;HPM_P1;HPM_P2
2023/04/29 00:01:05;;;;;;;26.30;6.00;;;;;;;11.17;100.00;93746.41;4807835;29;20134;-59
2023/04/29 00:03:31;;;;;;;16.97;5.60;;;;;;;11.17;100.00;93749.16;4807372;29;20465;-62
2023/04/29 00:05:59;;;;;;;14.95;5.55;;;;;;;11.20;100.00;93746.31;4808041;29;20514;-59
2023/04/29 00:08:27;;;;;;;11.10;5.15;;;;;;;11.19;100.00;93741.28;4807621;29;20532;-61
2023/04/29 00:10:54;;;;;;;9.80;5.50;;;;;;;11.19;100.00;93736.56;4808008;29;20054;-65
2023/04/29 00:13:21;;;;;;;12.35;5.20;;;;;;;11.27;100.00;93736.38;4807173;29;20050;-61
2023/04/29 00:15:48;;;;;;;11.43;5.03;;;;;;;11.29;100.00;93732.03;4808130;29;20055;-61
2023/04/29 00:18:14;;;;;;;16.73;5.40;;;;;;;11.26;100.00;93741.13;4807199;29;20051;-62
2023/04/29 00:20:42;;;;;;;16.08;5.88;;;;;;;11.19;100.00;93744.03;4807668;29;20087;-61
2023/04/29 00:23:09;;;;;;;20.20;5.57;;;;;;;11.16;100.00;93740.13;4807664;29;20055;-66
2023/04/29 00:25:37;;;;;;;47.33;7.60;;;;;;;11.11;100.00;93748.88;4807547;29;20049;-62
2023/04/29 00:28:07;;;;;;;13.70;6.47;;;;;;;11.18;100.00;93742.47;4807778;29;20410;-62
2023/04/29 00:30:34;;;;;;;39.15;8.15;;;;;;;11.20;100.00;93742.81;4791416;29;20061;-62
2023/04/29 00:33:01;;;;;;;14.00;6.53;;;;;;;11.22;100.00;93739.66;4807658;29;20057;-64
2023/04/29 00:35:28;;;;;;;34.15;6.80;;;;;;;11.22;100.00;93745.16;4807439;29;20078;-60
2023/04/29 00:37:54;;;;;;;60.90;11.63;;;;;;;11.18;100.00;93734.22;4791549;29;20536;-61
2023/04/29 00:40:21;;;;;;;25.70;7.67;;;;;;;11.17;100.00;93738.19;4807138;29;20062;-64
2023/04/29 00:42:48;;;;;;;51.90;8.07;;;;;;;11.18;100.00;93743.22;4807602;29;20534;-63
2023/04/29 00:45:15;;;;;;;16.35;5.90;;;;;;;11.22;100.00;93739.66;4807079;29;20067;-62
2023/04/29 00:47:41;;;;;;;58.42;5.80;;;;;;;11.20;100.00;93738.09;4807665;29;20053;-64
2023/04/29 00:50:08;;;;;;;55.10;5.78;;;;;;;11.22;100.00;93740.41;4791557;29;20448;-61
2023/04/29 00:52:37;;;;;;;28.17;5.40;;;;;;;11.24;100.00;93745.50;4807409;29;20043;-61
2023/04/29 00:55:06;;;;;;;30.30;5.68;;;;;;;11.25;100.00;93744.28;4807531;29;20063;-61
2023/04/29 00:57:33;;;;;;;11.45;5.30;;;;;;;11.19;100.00;93744.78;4807119;29;20485;-61
2023/04/29 01:00:00;;;;;;;10.07;5.50;;;;;;;11.23;100.00;93754.91;4791178;29;20161;-63
2023/04/29 01:02:27;;;;;;;66.22;37.17;;;;;;;11.28;100.00;93748.94;4805864;29;20462;-61
2023/04/29 01:04:54;;;;;;;38.93;14.47;;;;;;;11.19;100.00;93739.28;4807467;29;20475;-61
2023/04/29 01:07:36;;;;;;;52.03;8.30;;;;;;;11.16;100.00;93748.38;4806882;29;20053;-63
2023/04/29 01:10:09;;;;;;;29.23;6.93;;;;;;;11.15;100.00;93744.09;4803741;29;20058;-63
2023/04/29 01:12:53;;;;;;;46.22;6.35;;;;;;;11.07;100.00;93745.44;4803941;29;22038;-60
2023/04/29 01:15:22;;;;;;;61.10;6.40;;;;;;;11.10;100.00;93744.56;4803812;29;20058;-60
2023/04/29 01:18:11;;;;;;;54.40;6.00;;;;;;;11.11;100.00;93734.38;4804555;29;20046;-60
2023/04/29 01:20:38;;;;;;;23.98;5.63;;;;;;;11.12;100.00;93744.16;4787259;29;20050;-60
2023/04/29 01:23:05;;;;;;;19.70;5.50;;;;;;;10.98;100.00;93737.75;4804637;29;20050;-60
2023/04/29 01:25:31;;;;;;;11.27;4.80;;;;;;;11.07;100.00;93737.19;4803906;29;20478;-61
2023/04/29 01:28:24;;;;;;;24.17;5.20;;;;;;;11.10;100.00;93736.34;4804244;29;20397;-61
2023/04/29 01:31:14;;;;;;;37.53;5.40;;;;;;;11.10;100.00;93730.84;4793580;29;20059;-61
2023/04/29 01:33:53;;;;;;;48.08;5.35;;;;;;;11.02;100.00;93737.69;4803379;29;20677;-61
2023/04/29 01:36:32;;;;;;;23.52;4.95;;;;;;;10.95;100.00;93730.38;4803638;29;20065;-61
2023/04/29 01:39:13;;;;;;;38.15;6.38;;;;;;;10.96;100.00;93736.63;4787962;29;20055;-61
2023/04/29 01:41:50;;;;;;;17.33;6.80;;;;;;;11.00;100.00;93740.06;4790018;29;20672;-60
2023/04/29 01:44:22;;;;;;;16.20;5.47;;;;;;;11.03;100.00;93750.22;4803742;29;20394;-60
2023/04/29 01:46:51;;;;;;;90.53;9.20;;;;;;;10.84;100.00;93743.50;4777184;29;20053;-60
2023/04/29 01:49:24;;;;;;;129.35;8.25;;;;;;;10.54;100.00;93752.69;4803488;29;20057;-62
2023/04/29 01:51:51;;;;;;;19.90;6.07;;;;;;;10.72;100.00;93747.66;4792554;29;20063;-60
2023/04/29 01:54:17;;;;;;;40.28;5.88;;;;;;;10.84;100.00;93756.47;4803325;29;20070;-61
2023/04/29 01:56:44;;;;;;;14.57;4.67;;;;;;;10.81;100.00;93755.34;4787819;29;20389;-63
2023/04/29 01:59:11;;;;;;;15.43;4.65;;;;;;;10.77;100.00;93746.41;4787369;29;20080;-59
2023/04/29 02:01:38;;;;;;;41.85;5.60;;;;;;;10.71;100.00;93739.84;4786275;29;20055;-60
2023/04/29 02:04:04;;;;;;;48.75;5.20;;;;;;;10.65;100.00;93736.81;4803616;29;20043;-60
2023/04/29 02:06:32;;;;;;;15.07;4.22;;;;;;;10.75;100.00;93741.34;4787028;29;20069;-60
2023/04/29 02:08:59;;;;;;;9.90;4.23;;;;;;;10.83;100.00;93739.22;4803712;29;20636;-61
2023/04/29 02:11:25;;;;;;;14.80;4.32;;;;;;;10.87;100.00;93739.94;4803270;29;20059;-61
2023/04/29 02:13:53;;;;;;;18.15;4.63;;;;;;;10.89;100.00;93729.31;4803148;29;20061;-66
2023/04/29 02:16:20;;;;;;;22.75;5.32;;;;;;;10.90;100.00;93733.59;4803161;29;20637;-61
2023/04/29 02:18:47;;;;;;;62.70;6.40;;;;;;;10.85;100.00;93733.31;4803337;29;20497;-60
2023/04/29 02:21:14;;;;;;;64.53;5.90;;;;;;;10.85;100.00;93733.31;4802803;29;20111;-60
2023/04/29 02:23:41;;;;;;;12.90;5.40;;;;;;;10.82;100.00;93732.19;4787305;29;20047;-60
2023/04/29 02:26:09;;;;;;;51.03;7.65;;;;;;;10.76;100.00;93737.38;4787334;29;20521;-63
2023/04/29 02:28:36;;;;;;;46.80;6.28;;;;;;;10.74;100.00;93742.50;4802229;29;20466;-61
2023/04/29 02:31:03;;;;;;;14.75;5.80;;;;;;;10.72;100.00;93733.94;4803165;29;20083;-62
2023/04/29 02:33:30;;;;;;;15.47;5.17;;;;;;;10.75;100.00;93735.84;4802950;29;20054;-60
2023/04/29 02:35:58;;;;;;;23.20;5.53;;;;;;;10.74;100.00;93734.28;4803309;29;20047;-60
2023/04/29 02:38:25;;;;;;;56.90;5.72;;;;;;;10.78;100.00;93731.47;4802652;29;20538;-60
2023/04/29 02:40:52;;;;;;;12.85;4.97;;;;;;;10.78;100.00;93734.22;4803106;29;20063;-60
2023/04/29 02:43:18;;;;;;;33.75;4.78;;;;;;;10.79;100.00;93736.53;4802213;29;20057;-60
2023/04/29 02:45:45;;;;;;;21.57;4.20;;;;;;;10.78;100.00;93729.53;4802954;29;20043;-62
2023/04/29 02:48:12;;;;;;;14.48;4.60;;;;;;;10.66;100.00;93730.13;4802574;29;20488;-60
2023/04/29 02:50:39;;;;;;;19.83;4.10;;;;;;;10.64;100.00;93731.75;4802995;29;20349;-63
2023/04/29 02:53:05;;;;;;;21.08;3.90;;;;;;;10.52;100.00;93731.19;4802853;29;20061;-60
2023/04/29 02:55:33;;;;;;;23.40;4.00;;;;;;;10.47;100.00;93728.13;4802477;29;20462;-61
2023/04/29 02:57:59;;;;;;;10.97;3.87;;;;;;;10.41;100.00;93730.59;4802557;29;20073;-62
2023/04/29 03:00:26;;;;;;;11.52;3.72;;;;;;;10.43;100.00;93735.66;4802567;29;20058;-61
2023/04/29 03:02:53;;;;;;;11.38;3.75;;;;;;;10.48;100.00;93735.16;4801152;29;20469;-60
2023/04/29 03:05:19;;;;;;;26.42;4.30;;;;;;;10.46;100.00;93730.09;4802090;29;20470;-62
2023/04/29 03:07:46;;;;;;;18.20;4.40;;;;;;;10.39;100.00;93741.19;4802628;29;20039;-59
2023/04/29 03:10:13;;;;;;;59.33;5.80;;;;;;;10.32;100.00;93730.34;4785967;29;20047;-60
2023/04/29 03:12:39;;;;;;;12.35;4.38;;;;;;;10.30;100.00;93732.72;4802419;29;20051;-63
2023/04/29 03:15:07;;;;;;;17.08;5.80;;;;;;;10.31;100.00;93737.81;4786579;29;20091;-60
2023/04/29 03:17:34;;;;;;;20.17;7.00;;;;;;;10.27;100.00;93733.56;4802152;29;20073;-62
2023/04/29 03:20:01;;;;;;;32.47;5.70;;;;;;;10.18;100.00;93725.84;4802333;29;20054;-59
2023/04/29 03:22:27;;;;;;;14.93;4.63;;;;;;;10.14;100.00;93727.88;4801548;29;20047;-59
2023/04/29 03:24:54;;;;;;;22.75;7.20;;;;;;;10.09;100.00;93722.88;4802491;29;20118;-61
2023/04/29 03:27:21;;;;;;;47.97;19.48;;;;;;;10.06;100.00;93721.75;4801745;29;20055;-59
2023/04/29 03:29:48;;;;;;;36.45;14.23;;;;;;;10.05;100.00;93713.94;4802402;29;20047;-61
2023/04/29 03:32:14;;;;;;;20.35;8.35;;;;;;;9.98;100.00;93712.88;4785429;29;20424;-61
2023/04/29 03:34:41;;;;;;;13.83;5.73;;;;;;;9.98;100.00;93710.13;4790381;29;20046;-61
2023/04/29 03:37:08;;;;;;;93.63;5.75;;;;;;;9.95;100.00;93696.47;4802209;29;20058;-65
2023/04/29 03:39:34;;;;;;;7.80;4.10;;;;;;;10.00;100.00;93713.22;4801702;29;20087;-64
2023/04/29 03:42:01;;;;;;;11.25;4.25;;;;;;;10.04;100.00;93712.38;4786274;29;20053;-62
2023/04/29 03:44:28;;;;;;;18.23;4.00;;;;;;;10.02;100.00;93701.84;4801498;29;20055;-64
2023/04/29 03:46:55;;;;;;;35.63;4.83;;;;;;;10.01;100.00;93703.03;4802118;29;20046;-61
2023/04/29 03:49:22;;;;;;;17.00;4.60;;;;;;;10.02;100.00;93703.78;4801416;29;20058;-62
2023/04/29 03:51:49;;;;;;;53.33;7.18;;;;;;;9.98;100.00;93703.88;4802226;29;20043;-61
2023/04/29 03:54:16;;;;;;;10.27;5.70;;;;;;;9.99;100.00;93697.19;4785807;29;20642;-61
2023/04/29 03:56:43;;;;;;;9.02;5.05;;;;;;;9.97;100.00;93702.31;4802162;29;20055;-62
2023/04/29 03:59:10;;;;;;;34.67;4.50;;;;;;;9.94;100.00;93706.66;4802319;29;20058;-61
2023/04/29 04:01:36;;;;;;;10.00;4.13;;;;;;;9.93;100.00;93707.06;4801011;29;20442;-61
2023/04/29 04:04:03;;;;;;;7.75;3.72;;;;;;;9.96;100.00;93706.22;4801974;29;20066;-62
2023/04/29 04:06:30;;;;;;;53.80;4.82;;;;;;;9.94;100.00;93695.69;4801354;29;20081;-61
2023/04/29 04:08:57;;;;;;;33.20;4.20;;;;;;;9.95;100.00;93699.22;4801889;29;20055;-62
2023/04/29 04:11:24;;;;;;;19.27;3.30;;;;;;;9.94;100.00;93698.44;4801544;29;20189;-61
2023/04/29 04:13:50;;;;;;;21.92;3.83;;;;;;;9.93;100.00;93694.13;4785698;29;20107;-61
2023/04/29 04:16:17;;;;;;;27.73;4.25;;;;;;;9.96;100.00;93698.00;4801422;29;20466;-62
2023/04/29 04:18:44;;;;;;;85.97;5.45;;;;;;;9.94;100.00;93695.69;4801500;29;20055;-60
2023/04/29 04:21:11;;;;;;;8.82;4.00;;;;;;;9.88;100.00;93705.59;4801983;29;20051;-62
2023/04/29 04:23:39;;;;;;;14.37;5.40;;;;;;;9.85;100.00;93702.91;4800714;29;20877;-63
2023/04/29 04:26:07;;;;;;;36.00;7.40;;;;;;;9.77;100.00;93700.25;4802037;29;20061;-60
2023/04/29 04:28:34;;;;;;;14.02;6.35;;;;;;;9.75;100.00;93699.91;4785173;29;20043;-60
2023/04/29 04:31:01;;;;;;;26.42;5.60;;;;;;;9.69;100.00;93709.03;4801834;29;20059;-60
2023/04/29 04:33:28;;;;;;;18.10;5.05;;;;;;;9.75;100.00;93710.88;4800840;29;20412;-60
2023/04/29 04:35:54;;;;;;;17.07;5.23;;;;;;;9.59;100.00;93708.75;4801587;29;20067;-64
2023/04/29 04:38:24;;;;;;;15.77;6.65;;;;;;;9.52;100.00;93716.31;4801180;29;20115;-62
2023/04/29 04:40:51;;;;;;;25.75;7.20;;;;;;;9.55;100.00;93724.47;4801539;29;20086;-61
2023/04/29 04:43:17;;;;;;;44.72;7.25;;;;;;;9.62;100.00;93728.28;4801301;29;20043;-60
2023/04/29 04:45:44;;;;;;;125.22;8.73;;;;;;;9.67;100.00;93725.09;4804577;29;20063;-64
2023/04/29 04:48:11;;;;;;;39.73;7.43;;;;;;;9.73;100.00;93734.41;4788647;29;20061;-59
2023/04/29 04:50:38;;;;;;;31.35;5.63;;;;;;;9.78;100.00;93726.50;4803772;29;21697;-60
2023/04/29 04:53:05;;;;;;;148.52;7.55;;;;;;;9.71;100.00;93732.06;4804513;29;20365;-61
2023/04/29 04:55:35;;;;;;;35.88;4.82;;;;;;;9.77;100.00;93735.13;4788078;29;20070;-60
2023/04/29 04:58:02;;;;;;;18.60;4.55;;;;;;;9.78;100.00;93737.44;4805076;29;20051;-61
2023/04/29 05:00:28;;;;;;;37.77;5.60;;;;;;;9.50;100.00;93735.91;4804149;29;20094;-63
2023/04/29 05:02:55;;;;;;;29.52;4.80;;;;;;;9.38;100.00;93734.50;4788707;29;20050;-65
2023/04/29 05:05:22;;;;;;;53.20;5.43;;;;;;;9.63;100.00;93738.06;4804214;29;20061;-63
2023/04/29 05:07:49;;;;;;;43.08;4.93;;;;;;;9.72;100.00;93743.81;4804500;29;20051;-61
2023/04/29 05:10:15;;;;;;;74.72;5.68;;;;;;;9.73;100.00;93757.09;4803929;29;20051;-61
2023/04/29 05:12:42;;;;;;;93.93;5.13;;;;;;;9.78;100.00;93753.91;4788595;29;20051;-64
2023/04/29 05:15:09;;;;;;;89.63;5.15;;;;;;;9.61;100.00;93754.91;4804219;29;20047;-63
2023/04/29 05:17:36;;;;;;;46.55;4.60;;;;;;;9.79;100.00;93751.94;4803663;29;20061;-65
2023/04/29 05:20:03;;;;;;;76.80;4.90;;;;;;;9.88;100.00;93754.13;4804362;29;20053;-61
2023/04/29 05:22:29;;;;;;;27.63;4.07;;;;;;;10.29;100.00;93762.09;4792196;29;20042;-61
2023/04/29 05:25:01;;;;;;;48.30;4.40;;;;;;;10.60;100.00;93756.50;4804387;29;20070;-61
2023/04/29 05:27:28;;;;;;;31.80;4.00;;;;;;;10.49;100.00;93755.94;4803801;29;20057;-61
2023/04/29 05:29:55;;;;;;;58.08;4.57;;;;;;;10.57;100.00;93760.09;4804568;29;20093;-61
2023/04/29 05:32:22;;;;;;;44.47;4.53;;;;;;;11.08;100.00;93757.19;4803760;29;20047;-62
2023/04/29 05:34:49;;;;;;;51.40;4.35;;;;;;;11.54;100.00;93752.72;4804167;29;20453;-62
2023/04/29 05:37:16;;;;;;;40.10;3.87;;;;;;;11.78;100.00;93750.59;4803591;29;20043;-62
2023/04/29 05:39:43;;;;;;;55.83;4.43;;;;;;;11.81;100.00;93747.00;4773164;29;20053;-65
2023/04/29 05:42:10;;;;;;;48.25;3.80;;;;;;;11.80;100.00;93739.97;4804151;29;20068;-62
2023/04/29 05:44:38;;;;;;;40.50;3.35;;;;;;;11.45;100.00;93739.56;4803709;29;20461;-61
2023/04/29 05:47:05;;;;;;;59.15;3.75;;;;;;;11.75;100.00;93744.00;4766397;29;20062;-61
2023/04/29 05:49:31;;;;;;;19.93;3.60;;;;;;;11.59;100.00;93754.97;4803717;29;20054;-61
2023/04/29 05:52:02;;;;;;;56.33;4.05;;;;;;;12.29;100.00;93750.22;4804104;29;20042;-66
2023/04/29 05:54:29;;;;;;;17.63;3.70;;;;;;;12.74;100.00;93760.53;4791750;29;20437;-62
2023/04/29 05:56:56;;;;;;;22.45;3.65;;;;;;;12.91;100.00;93742.72;4804007;29;20126;-65
2023/04/29 05:59:23;;;;;;;9.63;3.60;;;;;;;13.05;100.00;93752.59;4803316;29;20057;-63
2023/04/29 06:01:49;;;;;;;42.77;4.47;;;;;;;12.05;100.00;93755.91;4802225;29;20058;-60
2023/04/29 06:04:16;;;;;;;42.75;4.28;;;;;;;11.72;100.00;93761.34;4802963;29;20146;-61
2023/04/29 06:06:43;;;;;;;17.30;3.67;;;;;;;12.41;100.00;93771.56;4787469;29;20039;-60
2023/04/29 06:09:10;;;;;;;43.67;4.65;;;;;;;12.64;100.00;93759.59;4803369;29;20351;-64
2023/04/29 06:11:50;;;;;;;19.23;5.22;;;;;;;13.65;100.00;93756.84;4802846;29;20319;-60
2023/04/29 06:14:16;;;;;;;12.57;5.30;;;;;;;13.68;100.00;93762.28;4803062;29;20038;-63
2023/04/29 06:16:43;;;;;;;12.80;4.50;;;;;;;13.66;100.00;93755.63;4787263;29;20065;-61
2023/04/29 06:19:10;;;;;;;30.10;5.70;;;;;;;12.54;100.00;93766.91;4802862;29;20055;-60
2023/04/29 06:21:37;;;;;;;16.30;4.00;;;;;;;11.52;100.00;93780.59;4785747;29;20103;-62
2023/04/29 06:24:04;;;;;;;23.95;4.15;;;;;;;10.60;100.00;93789.44;4803243;29;20111;-60
2023/04/29 06:26:31;;;;;;;5.63;3.03;;;;;;;11.66;100.00;93785.03;4802525;29;20130;-60
2023/04/29 06:28:57;;;;;;;5.10;3.05;;;;;;;12.28;100.00;93781.72;4803150;29;20068;-61
2023/04/29 06:31:24;;;;;;;4.13;2.90;;;;;;;12.54;100.00;93788.94;4802862;29;20057;-60
2023/04/29 06:33:51;;;;;;;4.70;3.33;;;;;;;12.82;100.00;93781.16;4803390;29;20492;-64
2023/04/29 06:36:18;;;;;;;5.25;3.50;;;;;;;13.11;100.00;93778.41;4802667;29;20066;-60
2023/04/29 06:38:44;;;;;;;4.87;3.40;;;;;;;15.92;100.00;93776.50;4803396;29;20047;-61
2023/04/29 06:41:11;;;;;;;4.47;3.20;;;;;;;17.50;100.00;93777.59;4786201;29;20126;-57
2023/04/29 06:43:38;;;;;;;4.50;3.28;;;;;;;17.83;100.00;93774.16;4803208;29;20458;-62
2023/04/29 06:46:05;;;;;;;4.40;3.15;;;;;;;15.47;100.00;93776.94;4787002;29;20075;-61
2023/04/29 06:48:31;;;;;;;4.70;3.40;;;;;;;14.43;100.00;93781.25;4802600;29;20061;-61
2023/04/29 06:50:58;;;;;;;4.40;3.00;;;;;;;13.58;100.00;93785.41;4803214;29;20106;-61
2023/04/29 06:53:25;;;;;;;4.50;3.20;;;;;;;14.06;100.00;93783.56;4802008;29;20057;-61
2023/04/29 06:55:52;;;;;;;5.85;3.63;;;;;;;14.02;100.00;93776.63;4802488;29;20609;-64
2023/04/29 06:58:19;;;;;;;6.55;3.90;;;;;;;13.10;100.00;93789.84;4802031;29;20050;-61
2023/04/29 07:00:50;;;;;;;5.70;4.28;;;;;;;13.67;100.00;93785.53;4801154;29;20054;-63
2023/04/29 07:03:17;;;;;;;5.57;3.90;;;;;;;13.53;100.00;93788.72;4802186;29;20076;-61
2023/04/29 07:05:45;;;;;;;5.55;3.90;;;;;;;14.07;100.00;93784.38;4802617;29;20073;-62
2023/04/29 07:08:12;;;;;;;6.10;4.60;;;;;;;13.65;100.00;93789.94;4801323;29;20433;-58
2023/04/29 07:10:40;;;;;;;5.43;4.53;;;;;;;13.27;100.00;93798.84;4786288;29;20050;-63
2023/04/29 07:13:07;;;;;;;6.53;4.70;;;;;;;13.77;100.00;93795.47;4802697;29;20149;-59
2023/04/29 07:15:35;;;;;;;5.67;4.43;;;;;;;13.13;100.00;93800.00;4801812;29;20049;-60
2023/04/29 07:18:05;;;;;;;6.38;4.30;;;;;;;16.34;100.00;93792.69;4802479;29;20154;-60
2023/04/29 07:20:35;;;;;;;5.65;4.18;;;;;;;19.01;100.00;93781.72;4801740;29;20047;-61
2023/04/29 07:23:02;;;;;;;5.38;3.67;;;;;;;18.14;100.00;93768.41;4802641;29;20057;-62
2023/04/29 07:25:29;;;;;;;5.15;3.40;;;;;;;20.18;100.00;93771.25;4801925;29;20051;-61
2023/04/29 07:27:56;;;;;;;5.57;3.20;;;;;;;20.34;92.41;93772.78;4802421;29;20050;-61
2023/04/29 07:30:23;;;;;;;3.88;3.05;;;;;;;20.02;91.45;93780.91;4801733;29;20081;-61
2023/04/29 07:32:50;;;;;;;5.60;3.95;;;;;;;16.53;100.00;93785.19;4802338;29;20402;-62
2023/04/29 07:35:17;;;;;;;7.20;4.10;;;;;;;17.65;100.00;93778.53;4801830;29;20374;-65
2023/04/29 07:37:44;;;;;;;5.78;3.50;;;;;;;20.01;100.00;93770.22;4802181;29;20045;-62
2023/04/29 07:40:12;;;;;;;4.50;3.87;;;;;;;18.67;100.00;93778.19;4802022;29;20072;-63
2023/04/29 07:42:38;;;;;;;5.72;3.63;;;;;;;17.56;100.00;93776.50;4800920;29;21777;-60
2023/04/29 07:45:06;;;;;;;4.78;3.70;;;;;;;17.04;100.00;93774.84;4801804;29;20057;-60
2023/04/29 07:47:32;;;;;;;5.30;3.17;;;;;;;21.62;94.46;93768.69;4801299;29;20046;-64
2023/04/29 07:50:00;;;;;;;5.55;3.10;;;;;;;20.20;93.09;93771.53;4802065;29;20119;-61
2023/04/29 07:52:27;;;;;;;5.40;3.20;;;;;;;21.90;83.89;93780.91;4801529;29;20039;-61
2023/04/29 07:54:55;;;;;;;5.20;2.70;;;;;;;24.52;68.77;93779.72;4801708;29;20047;-62
2023/04/29 07:57:21;;;;;;;4.20;2.78;;;;;;;21.83;75.38;93781.38;4801275;29;20131;-62
2023/04/29 07:59:52;;;;;;;6.38;2.90;;;;;;;20.74;87.08;93763.81;4801939;29;20114;-61
2023/04/29 08:02:20;;;;;;;4.85;2.35;;;;;;;23.53;66.33;93763.72;4801406;29;20050;-63
2023/04/29 08:04:49;;;;;;;6.17;2.10;;;;;;;22.33;68.15;93781.09;4801929;29;20405;-62
2023/04/29 08:07:17;;;;;;;6.10;2.60;;;;;;;21.94;74.51;93781.47;4801465;29;20063;-61
2023/04/29 08:09:43;;;;;;;15.70;4.30;;;;;;;20.08;84.59;93780.97;4801803;29;20138;-60
2023/04/29 08:12:10;;;;;;;6.38;3.90;;;;;;;20.40;89.32;93775.66;4801940;29;20111;-60
2023/04/29 08:14:37;;;;;;;6.75;3.60;;;;;;;20.19;87.23;93777.63;4800852;29;20597;-61
2023/04/29 08:17:04;;;;;;;6.93;3.30;;;;;;;19.78;86.21;93783.78;4801743;29;20050;-60
2023/04/29 08:19:30;;;;;;;6.05;3.15;;;;;;;20.05;87.76;93779.91;4786405;29;20051;-61
2023/04/29 08:21:57;;;;;;;7.13;3.60;;;;;;;18.12;99.64;93776.44;4805304;29;20057;-61
2023/04/29 08:24:24;;;;;;;8.35;3.08;;;;;;;19.86;87.00;93776.56;4804998;29;20391;-61
2023/04/29 08:26:51;;;;;;;4.72;3.38;;;;;;;21.81;77.68;93783.09;4805336;29;20062;-61
2023/04/29 08:29:18;;;;;;;6.03;3.30;;;;;;;21.59;77.49;93775.25;4788601;29;20073;-61
2023/04/29 08:31:45;;;;;;;4.32;2.97;;;;;;;21.19;79.29;93776.78;4804967;29;20110;-65
2023/04/29 08:34:12;;;;;;;5.47;2.50;;;;;;;24.34;64.76;93778.16;4804850;29;20061;-62
2023/04/29 08:36:38;;;;;;;5.78;2.92;;;;;;;22.23;69.98;93776.88;4804887;29;20497;-64
2023/04/29 08:39:05;;;;;;;4.20;3.15;;;;;;;21.68;73.53;93777.91;4805327;29;20055;-61
2023/04/29 08:41:32;;;;;;;3.87;2.80;;;;;;;22.17;70.91;93770.47;4804654;29;20050;-62
2023/04/29 08:43:59;;;;;;;3.55;2.60;;;;;;;21.86;72.71;93771.97;4804815;29;20131;-63
2023/04/29 08:46:27;;;;;;;5.95;2.75;;;;;;;19.12;85.71;93776.41;4804390;29;20070;-62
2023/04/29 08:48:55;;;;;;;3.53;2.50;;;;;;;21.65;78.60;93776.88;4804817;29;20059;-64
2023/04/29 08:51:22;;;;;;;3.20;2.60;;;;;;;20.73;75.84;93778.97;4788091;29;20058;-65
2023/04/29 08:53:49;;;;;;;4.60;2.20;;;;;;;23.36;66.34;93776.88;4804741;29;20139;-64
2023/04/29 08:56:19;;;;;;;4.93;2.03;;;;;;;26.43;54.16;93769.81;4804350;29;20062;-61
2023/04/29 08:58:53;;;;;;;4.43;2.30;;;;;;;24.59;57.77;93772.81;4804790;29;20047;-62
2023/04/29 09:01:21;;;;;;;4.97;2.50;;;;;;;21.90;64.68;93774.56;4793244;29;20115;-61
2023/04/29 09:04:16;;;;;;;4.05;2.10;;;;;;;22.71;65.66;93770.66;4804463;29;20489;-61
2023/04/29 09:06:42;;;;;;;5.17;2.50;;;;;;;21.78;69.30;93781.31;4787487;29;20039;-62
2023/04/29 09:09:12;;;;;;;4.75;2.40;;;;;;;22.51;68.28;93774.34;4804453;29;20045;-65
2023/04/29 09:11:40;;;;;;;4.18;2.55;;;;;;;19.04;82.16;93784.34;4787531;29;20670;-61
2023/04/29 09:14:08;;;;;;;5.95;2.55;;;;;;;20.10;83.00;93786.81;4804741;29;20083;-63
2023/04/29 09:16:37;;;;;;;3.55;2.20;;;;;;;22.48;66.50;93782.97;4804092;29;20129;-65
2023/04/29 09:19:03;;;;;;;4.60;2.50;;;;;;;21.22;75.10;93779.38;4803649;29;20061;-65
2023/04/29 09:21:31;;;;;;;4.25;2.30;;;;;;;20.91;72.05;93783.53;4787293;29;20051;-63
2023/04/29 09:24:01;;;;;;;4.45;2.45;;;;;;;20.23;78.88;93775.41;4804231;29;20061;-61
2023/04/29 09:26:41;;;;;;;6.20;2.50;;;;;;;20.85;76.75;93776.38;4803577;29;20057;-61
2023/04/29 09:29:17;;;;;;;3.70;2.55;;;;;;;20.27;77.95;93779.53;4803751;29;20055;-65
2023/04/29 09:31:44;;;;;;;3.60;2.30;;;;;;;20.66;75.81;93778.63;4802855;29;20868;-62
2023/04/29 09:34:13;;;;;;;4.63;2.50;;;;;;;20.70;73.87;93784.75;4804413;29;20076;-61
2023/04/29 09:36:45;;;;;;;3.65;2.40;;;;;;;21.01;73.55;93786.97;4786982;29;20057;-62
2023/04/29 09:39:20;;;;;;;4.50;2.30;;;;;;;21.03;74.36;93783.69;4804003;29;20408;-61
2023/04/29 09:41:53;;;;;;;4.35;2.40;;;;;;;20.24;75.31;93782.50;4804030;29;20055;-65
2023/04/29 09:44:22;;;;;;;4.60;2.23;;;;;;;21.13;71.66;93783.06;4787291;29;20058;-61
2023/04/29 09:47:02;;;;;;;4.30;2.45;;;;;;;20.07;76.50;93783.00;4803989;29;20118;-61
2023/04/29 09:49:36;;;;;;;3.78;2.40;;;;;;;22.36;66.11;93787.72;4803472;29;20051;-61
2023/04/29 09:52:04;;;;;;;4.10;2.30;;;;;;;21.94;68.41;93786.28;4803998;29;20054;-62
2023/04/29 09:54:33;;;;;;;4.20;2.40;;;;;;;23.28;62.15;93777.38;4803238;29;20411;-62
2023/04/29 09:57:01;;;;;;;3.00;2.17;;;;;;;23.30;61.62;93786.03;4803687;29;20144;-64
2023/04/29 09:59:28;;;;;;;4.50;2.20;;;;;;;23.50;60.81;93778.72;4803156;29;20058;-62
2023/04/29 10:01:56;;;;;;;3.95;2.30;;;;;;;22.67;61.13;93780.56;4803650;29;20070;-65
2023/04/29 10:04:25;;;;;;;4.18;2.30;;;;;;;21.71;64.24;93788.84;4791748;29;20051;-61
2023/04/29 10:06:54;;;;;;;3.33;2.20;;;;;;;22.26;66.37;93791.94;4803602;29;20059;-62
2023/04/29 10:09:22;;;;;;;3.83;2.10;;;;;;;22.79;63.00;93775.81;4802863;29;20516;-62
2023/04/29 10:11:53;;;;;;;3.65;2.42;;;;;;;23.04;59.34;93774.19;4803607;29;20531;-65
2023/04/29 10:14:24;;;;;;;3.90;2.40;;;;;;;21.61;62.05;93786.69;4802997;29;20085;-62
2023/04/29 10:17:19;;;;;;;3.63;2.42;;;;;;;21.48;66.95;93775.91;4772358;29;20061;-61
2023/04/29 10:20:06;;;;;;;5.03;2.65;;;;;;;22.04;63.61;93789.69;4802380;29;20830;-61
2023/04/29 10:22:55;;;;;;;4.10;2.50;;;;;;;21.49;65.01;93789.38;4802851;29;20057;-61
2023/04/29 10:25:23;;;;;;;3.42;2.40;;;;;;;22.86;61.11;93773.31;4803162;29;20058;-61
2023/04/29 10:27:52;;;;;;;3.40;2.20;;;;;;;20.69;70.99;93781.19;4803262;29;20501;-61
2023/04/29 10:30:21;;;;;;;4.25;2.60;;;;;;;20.83;66.93;93776.84;4801632;29;20077;-65
2023/04/29 10:32:49;;;;;;;3.85;2.70;;;;;;;20.37;68.27;93780.19;4801077;29;20110;-65
2023/04/29 10:35:21;;;;;;;4.70;2.57;;;;;;;21.07;67.21;93773.88;4802712;29;20043;-62
2023/04/29 10:37:48;;;;;;;3.72;2.90;;;;;;;19.65;73.30;93774.88;4803197;29;20099;-62
2023/04/29 10:40:26;;;;;;;3.92;2.85;;;;;;;19.84;70.81;93779.06;4802748;29;20058;-65
2023/04/29 10:42:54;;;;;;;6.15;3.33;;;;;;;18.58;78.93;93770.69;4803009;29;20046;-61
2023/04/29 10:45:28;;;;;;;5.30;2.92;;;;;;;18.36;82.28;93776.50;4802510;29;20050;-61
2023/04/29 10:48:05;;;;;;;4.30;2.90;;;;;;;19.31;78.03;93771.47;4802408;29;20057;-61
2023/04/29 10:50:34;;;;;;;4.95;3.17;;;;;;;19.11;75.97;93774.84;4802363;29;20039;-61
2023/04/29 10:53:01;;;;;;;5.50;2.83;;;;;;;19.08;78.19;93781.38;4802594;29;20107;-61
2023/04/29 10:55:29;;;;;;;5.05;2.65;;;;;;;20.55;72.48;93770.84;4802490;29;20072;-61
2023/04/29 10:57:56;;;;;;;3.53;2.67;;;;;;;19.34;75.84;93767.75;4802826;29;20065;-65
2023/04/29 11:00:27;;;;;;;7.00;4.40;;;;;;;20.09;72.30;93768.59;4802223;29;20074;-61
2023/04/29 11:02:59;;;;;;;4.55;2.83;;;;;;;18.66;78.61;93765.53;4802330;29;20043;-61
2023/04/29 11:05:36;;;;;;;4.43;2.75;;;;;;;19.74;77.13;93772.81;4801971;29;20047;-61
2023/04/29 11:08:23;;;;;;;4.47;2.58;;;;;;;20.66;69.52;93764.66;4801889;29;20077;-61
2023/04/29 11:10:53;;;;;;;4.30;2.83;;;;;;;18.75;78.35;93752.38;4785315;29;20570;-60
2023/04/29 11:13:25;;;;;;;4.87;2.67;;;;;;;18.17;85.00;93759.13;4801776;29;20045;-61
2023/04/29 11:15:52;;;;;;;3.92;2.60;;;;;;;18.13;82.70;93753.75;4786531;29;20156;-64
2023/04/29 11:18:19;;;;;;;4.93;2.92;;;;;;;18.57;81.13;93752.44;4801447;29;20051;-62
2023/04/29 11:21:04;;;;;;;5.55;3.05;;;;;;;18.85;77.49;93746.75;4802422;29;20442;-60
2023/04/29 11:23:35;;;;;;;5.07;3.10;;;;;;;18.31;82.59;93744.56;4801712;29;20046;-60
2023/04/29 11:26:03;;;;;;;4.20;2.40;;;;;;;19.27;78.36;93746.59;4802330;29;20047;-63
2023/04/29 11:28:31;;;;;;;5.18;2.65;;;;;;;18.57;79.94;93752.44;4801558;29;20078;-63
2023/04/29 11:30:58;;;;;;;5.47;2.70;;;;;;;18.41;81.94;93755.63;4800323;29;20055;-65